Time;durP1;ratioP1;P1;durP2;ratioP2;P2;SDS_P1;SDS_P2;PMS_P1;PMS_P2;Temp;Humidity;BMP_temperature;BMP_pressure;BME280_temperature;BME280_humidity;BME280_pressure;Samples;Min_cycle;Max_cycle;Signal;HPM_P1;HPM_P2
2024/03/01 00:01:52;;;;;;;24.83;18.83;;;;;;;6.35;100.00;97145.50;6327197;28;20230;-50
2024/03/01 00:04:54;;;;;;;27.23;19.13;;;;;;;6.23;100.00;97136.75;6334574;28;20196;-52
2024/03/01 00:07:57;;;;;;;29.67;20.07;;;;;;;6.15;100.00;97142.34;6326378;28;20655;-54
2024/03/01 00:10:59;;;;;;;28.47;18.97;;;;;;;6.13;100.00;97134.66;6326688;28;20194;-51
2024/03/01 00:14:01;;;;;;;31.43;20.73;;;;;;;6.15;100.00;97129.13;6330026;28;20752;-47
2024/03/01 00:17:03;;;;;;;27.53;20.10;;;;;;;6.11;100.00;97120.88;6325565;28;20250;-53
2024/03/01 00:20:06;;;;;;;28.43;21.10;;;;;;;6.19;100.00;97127.66;6326782;28;20667;-50
2024/03/01 00:23:08;;;;;;;31.80;22.57;;;;;;;6.18;100.00;97123.41;6319432;28;20196;-52
2024/03/01 00:26:11;;;;;;;33.03;23.93;;;;;;;6.28;100.00;97109.63;6337727;28;20191;-50
2024/03/01 00:29:13;;;;;;;38.87;24.30;;;;;;;6.18;100.00;97094.31;6331057;28;20201;-50
2024/03/01 00:32:15;;;;;;;35.20;22.17;;;;;;;6.25;100.00;97110.88;6333027;28;20193;-50
2024/03/01 00:35:17;;;;;;;31.40;22.63;;;;;;;6.10;100.00;97078.78;6328881;28;20215;-52
2024/03/01 00:38:20;;;;;;;31.07;21.33;;;;;;;6.10;100.00;97092.78;6329044;28;20200;-52
2024/03/01 00:41:22;;;;;;;31.03;20.30;;;;;;;6.01;100.00;97085.41;6329673;28;20768;-51
2024/03/01 00:44:24;;;;;;;29.53;20.87;;;;;;;6.03;100.00;97086.00;6326627;28;20553;-51
2024/03/01 00:47:26;;;;;;;30.43;21.37;;;;;;;5.95;100.00;97060.69;6324949;28;20207;-53
2024/03/01 00:50:28;;;;;;;35.70;22.60;;;;;;;5.95;100.00;97069.44;6320729;28;20222;-48
2024/03/01 00:53:30;;;;;;;28.10;21.23;;;;;;;5.89;100.00;97059.75;6337122;28;20569;-50
2024/03/01 00:56:32;;;;;;;29.80;20.53;;;;;;;5.86;100.00;97064.66;6332684;28;20650;-48
2024/03/01 00:59:34;;;;;;;29.57;19.97;;;;;;;5.81;100.00;97064.53;6328595;28;20655;-53
2024/03/01 01:02:37;;;;;;;29.07;20.60;;;;;;;5.75;100.00;97076.03;6326362;28;20663;-53
2024/03/01 01:05:42;;;;;;;33.20;23.33;;;;;;;5.58;100.00;97060.81;6330452;28;21028;-53
2024/03/01 01:08:45;;;;;;;33.40;23.10;;;;;;;5.53;100.00;97073.91;6328013;28;20666;-53
2024/03/01 01:11:47;;;;;;;35.30;22.43;;;;;;;5.56;100.00;97067.34;6328311;28;20196;-50
2024/03/01 01:14:49;;;;;;;30.00;21.60;;;;;;;5.46;100.00;97069.72;6328846;28;20222;-52
2024/03/01 01:17:51;;;;;;;32.97;22.50;;;;;;;5.42;100.00;97072.03;6316384;28;20645;-51
2024/03/01 01:20:53;;;;;;;34.93;24.67;;;;;;;5.39;100.00;97062.69;6339770;28;20311;-48
2024/03/01 01:23:55;;;;;;;42.03;27.37;;;;;;;5.56;100.00;97051.50;6343136;28;20273;-51
2024/03/01 01:26:57;;;;;;;40.57;24.53;;;;;;;5.59;100.00;97057.13;6332444;28;20757;-52
2024/03/01 01:30:00;;;;;;;34.77;23.87;;;;;;;5.61;100.00;97057.72;6333448;28;20209;-53
2024/03/01 01:33:02;;;;;;;40.63;26.00;;;;;;;5.60;100.00;97052.66;6333052;28;20295;-51
2024/03/01 01:36:05;;;;;;;46.37;31.40;;;;;;;5.84;100.00;97053.53;6333048;28;20604;-48
2024/03/01 01:39:07;;;;;;;41.77;26.23;;;;;;;5.80;100.00;97045.25;6333953;28;20267;-50
2024/03/01 01:42:10;;;;;;;36.07;25.13;;;;;;;5.72;100.00;97058.00;6332992;28;20318;-52
2024/03/01 01:45:12;;;;;;;36.90;25.23;;;;;;;5.75;100.00;97057.53;6336118;28;20205;-49
2024/03/01 01:48:16;;;;;;;37.00;25.03;;;;;;;5.82;100.00;97056.41;6338957;28;20196;-52
2024/03/01 01:51:19;;;;;;;48.73;28.90;;;;;;;5.78;100.00;97054.44;6334257;28;20690;-50
2024/03/01 01:54:22;;;;;;;42.80;28.17;;;;;;;5.86;100.00;97048.81;6309067;28;20239;-49
2024/03/01 01:57:24;;;;;;;42.40;26.83;;;;;;;5.90;100.00;97042.84;6332893;28;20515;-51
2024/03/01 02:00:28;;;;;;;39.37;24.97;;;;;;;5.89;100.00;97038.59;6335254;28;20660;-50
2024/03/01 02:03:30;;;;;;;38.40;25.67;;;;;;;5.83;100.00;97036.06;6331524;28;20208;-50
2024/03/01 02:06:32;;;;;;;35.57;24.90;;;;;;;5.78;100.00;97035.94;6329066;28;20200;-49
2024/03/01 02:09:37;;;;;;;38.27;25.43;;;;;;;5.57;100.00;97027.50;6337749;28;20730;-49
2024/03/01 02:12:39;;;;;;;42.03;25.53;;;;;;;5.65;100.00;97042.22;6341339;28;20557;-50
2024/03/01 02:15:41;;;;;;;39.10;25.23;;;;;;;5.61;100.00;97043.69;6335550;28;20259;-50
2024/03/01 02:18:47;;;;;;;35.07;24.07;;;;;;;5.61;100.00;97043.69;6336141;28;20275;-51
2024/03/01 02:22:05;;;;;;;53.20;32.87;;;;;;;6.00;100.00;97034.38;6330409;28;20425;-51
2024/03/01 02:25:07;;;;;;;43.07;27.53;;;;;;;6.40;100.00;97031.91;6335750;28;20191;-49
2024/03/01 02:28:09;;;;;;;40.33;26.93;;;;;;;6.36;100.00;97030.75;6332528;28;20648;-51
2024/03/01 02:31:12;;;;;;;37.63;25.07;;;;;;;6.22;100.00;97028.56;6330129;28;20193;-52
2024/03/01 02:34:14;;;;;;;35.30;23.03;;;;;;;6.17;100.00;97031.88;6329787;28;20209;-53
2024/03/01 02:37:16;;;;;;;33.57;22.73;;;;;;;5.94;100.00;97016.78;6315540;28;20207;-49
2024/03/01 02:40:18;;;;;;;38.63;24.53;;;;;;;6.04;100.00;97021.53;6334806;28;20671;-51
2024/03/01 02:43:21;;;;;;;36.53;24.53;;;;;;;6.10;100.00;97020.59;6338795;28;20227;-46
2024/03/01 02:46:23;;;;;;;35.07;24.70;;;;;;;6.12;100.00;97023.84;6300263;28;20719;-50
2024/03/01 02:49:25;;;;;;;38.40;26.40;;;;;;;6.08;100.00;97020.03;6329899;28;20197;-49
2024/03/01 02:52:27;;;;;;;39.60;25.70;;;;;;;6.14;100.00;97013.81;6327964;28;20674;-48
2024/03/01 02:55:30;;;;;;;42.70;26.67;;;;;;;6.18;100.00;97012.34;6329738;28;20569;-48
2024/03/01 02:58:32;;;;;;;33.57;24.13;;;;;;;6.18;100.00;97004.41;6331432;28;20192;-49
2024/03/01 03:01:34;;;;;;;39.30;26.60;;;;;;;6.20;100.00;97002.31;6332050;28;20195;-53
2024/03/01 03:04:36;;;;;;;40.40;27.13;;;;;;;6.11;100.00;97001.06;6330196;28;20196;-49
2024/03/01 03:07:40;;;;;;;40.37;26.00;;;;;;;6.15;100.00;96999.56;6318370;28;20233;-51
2024/03/01 03:10:42;;;;;;;38.03;26.57;;;;;;;6.13;100.00;97007.72;6322847;28;20578;-51
2024/03/01 03:13:45;;;;;;;36.63;23.80;;;;;;;6.07;100.00;97003.38;6335699;28;20238;-46
2024/03/01 03:16:50;;;;;;;38.77;25.37;;;;;;;6.06;100.00;96993.84;6336398;28;20213;-52
2024/03/01 03:19:52;;;;;;;39.90;25.07;;;;;;;6.02;100.00;97005.91;6334904;28;20201;-49
2024/03/01 03:22:56;;;;;;;34.40;25.30;;;;;;;5.98;100.00;96996.81;6331190;28;20224;-49
2024/03/01 03:25:58;;;;;;;34.00;23.73;;;;;;;5.94;100.00;96996.44;6329972;28;20669;-49
2024/03/01 03:29:00;;;;;;;30.67;21.70;;;;;;;5.95;100.00;96999.91;6332998;28;20546;-51
2024/03/01 03:32:05;;;;;;;34.33;23.57;;;;;;;5.89;100.00;96998.94;6331192;28;20686;-50
2024/03/01 03:35:08;;;;;;;35.70;22.63;;;;;;;5.90;100.00;96997.91;6339344;28;20630;-49
2024/03/01 03:38:10;;;;;;;31.00;22.80;;;;;;;5.89;100.00;96993.66;6341813;28;20199;-52
2024/03/01 03:41:12;;;;;;;31.67;22.10;;;;;;;5.82;100.00;96992.97;6324976;28;20221;-49
2024/03/01 03:44:14;;;;;;;37.40;24.33;;;;;;;5.75;100.00;96991.47;6304416;28;20201;-50
2024/03/01 03:47:17;;;;;;;33.33;21.53;;;;;;;5.70;100.00;97003.50;6303546;28;20343;-48
2024/03/01 03:50:19;;;;;;;36.93;23.07;;;;;;;5.76;100.00;97001.00;6306551;28;20208;-49
2024/03/01 03:53:21;;;;;;;37.43;25.00;;;;;;;5.76;100.00;96998.34;6307011;28;20205;-46
2024/03/01 03:56:23;;;;;;;35.03;24.40;;;;;;;5.72;100.00;96982.16;6299180;28;20211;-50
2024/03/01 03:59:25;;;;;;;34.57;23.80;;;;;;;5.80;100.00;96987.09;6307186;28;20197;-50
2024/03/01 04:02:28;;;;;;;34.07;23.50;;;;;;;5.87;100.00;96971.94;6312919;28;20231;-51
2024/03/01 04:05:30;;;;;;;34.63;22.53;;;;;;;5.78;100.00;96951.38;6312866;28;20201;-48
2024/03/01 04:08:32;;;;;;;35.27;22.57;;;;;;;6.11;100.00;96980.72;6308179;28;20200;-51
2024/03/01 04:11:34;;;;;;;31.73;22.90;;;;;;;6.01;100.00;96977.03;6312858;28;20201;-51
2024/03/01 04:14:36;;;;;;;36.00;23.60;;;;;;;6.06;100.00;96971.84;6310444;28;20304;-51
2024/03/01 04:17:38;;;;;;;35.40;23.00;;;;;;;6.00;100.00;96964.84;6307867;28;20581;-50
2024/03/01 04:20:41;;;;;;;32.77;22.80;;;;;;;6.15;100.00;96963.34;6303237;28;20672;-47
2024/03/01 04:23:43;;;;;;;34.27;22.70;;;;;;;6.08;100.00;96960.03;6300251;28;20203;-50
2024/03/01 04:26:46;;;;;;;36.83;26.33;;;;;;;6.18;100.00;96956.78;6310095;28;20665;-47
2024/03/01 04:29:48;;;;;;;36.90;25.87;;;;;;;6.28;100.00;96964.16;6297360;28;20804;-49
2024/03/01 04:32:50;;;;;;;37.60;25.20;;;;;;;6.31;100.00;96953.91;6310532;28;20204;-48
2024/03/01 04:35:52;;;;;;;41.47;24.33;;;;;;;6.33;100.00;96953.69;6294090;28;20300;-47
2024/03/01 04:38:54;;;;;;;33.17;24.77;;;;;;;6.33;100.00;96935.97;6302559;28;20654;-49
2024/03/01 04:41:56;;;;;;;38.20;24.30;;;;;;;6.39;100.00;96942.16;6283521;28;20237;-51
2024/03/01 04:44:58;;;;;;;33.43;23.47;;;;;;;6.42;100.00;96931.91;6306256;28;20194;-47
2024/03/01 04:48:01;;;;;;;38.10;24.33;;;;;;;6.56;100.00;96931.66;6286701;28;20685;-52
2024/03/01 04:51:12;;;;;;;37.77;24.50;;;;;;;6.45;100.00;96931.47;6289099;28;20662;-50
2024/03/01 04:54:15;;;;;;;35.93;23.83;;;;;;;6.48;100.00;96938.13;6302500;28;20205;-48
2024/03/01 04:57:17;;;;;;;36.60;25.57;;;;;;;6.53;100.00;96932.13;6302666;28;20228;-49
2024/03/01 05:00:21;;;;;;;33.77;22.50;;;;;;;6.61;100.00;96924.63;6279643;28;20202;-48
2024/03/01 05:03:25;;;;;;;33.23;22.33;;;;;;;6.59;100.00;96921.41;6311105;28;20197;-49
2024/03/01 05:06:27;;;;;;;34.17;23.40;;;;;;;6.60;100.00;96919.56;6316759;28;20182;-47
2024/03/01 05:09:29;;;;;;;36.53;22.83;;;;;;;6.61;100.00;96929.13;6302616;28;20219;-47
2024/03/01 05:12:31;;;;;;;34.53;23.37;;;;;;;6.85;100.00;96914.78;6306257;28;20196;-48
2024/03/01 05:15:34;;;;;;;39.77;23.33;;;;;;;6.73;100.00;96922.75;6307189;28;20193;-49
2024/03/01 05:18:36;;;;;;;34.77;22.33;;;;;;;6.65;100.00;96909.91;6305387;28;20203;-52
2024/03/01 05:21:38;;;;;;;30.63;20.87;;;;;;;6.76;100.00;96918.03;6311614;28;20209;-50
2024/03/01 05:24:40;;;;;;;34.50;22.37;;;;;;;6.74;100.00;96910.31;6308840;28;20244;-49
2024/03/01 05:27:47;;;;;;;26.97;20.90;;;;;;;6.65;100.00;96919.66;6312537;28;20200;-49
2024/03/01 05:30:50;;;;;;;31.83;21.27;;;;;;;6.57;100.00;96920.03;6310621;28;20654;-50
2024/03/01 05:33:54;;;;;;;33.10;21.23;;;;;;;6.56;100.00;96926.38;6304395;28;20193;-52
2024/03/01 05:36:57;;;;;;;27.53;21.40;;;;;;;6.57;100.00;96926.13;6289407;28;20225;-52
2024/03/01 05:40:01;;;;;;;31.00;20.17;;;;;;;6.44;100.00;96913.97;6308791;28;20241;-48
2024/03/01 05:43:05;;;;;;;32.67;21.47;;;;;;;6.39;100.00;96907.78;6308168;28;20259;-52
2024/03/01 05:46:14;;;;;;;32.33;21.37;;;;;;;6.46;100.00;96903.97;6301805;28;20663;-50
2024/03/01 05:49:17;;;;;;;34.03;24.40;;;;;;;6.89;100.00;96926.47;6293500;28;20563;-52
2024/03/01 05:52:19;;;;;;;35.60;24.67;;;;;;;6.84;100.00;96934.31;6311834;28;20277;-52
2024/03/01 05:55:22;;;;;;;38.70;24.47;;;;;;;6.90;100.00;96929.94;6311973;28;20198;-49
2024/03/01 05:58:24;;;;;;;36.87;26.40;;;;;;;6.96;100.00;96929.78;6306873;28;20595;-51
2024/03/01 06:01:26;;;;;;;35.77;23.00;;;;;;;7.03;100.00;96928.84;6296845;28;20324;-49
2024/03/01 06:04:29;;;;;;;37.17;24.73;;;;;;;7.01;100.00;96921.13;6313101;28;20190;-47
2024/03/01 06:07:31;;;;;;;34.97;23.77;;;;;;;7.03;100.00;96927.00;6307624;28;20278;-50
2024/03/01 06:10:33;;;;;;;35.77;23.43;;;;;;;6.97;100.00;96920.00;6306750;28;20206;-52
2024/03/01 06:13:38;;;;;;;37.07;23.43;;;;;;;6.95;100.00;96911.50;6309476;28;20216;-47
2024/03/01 06:16:40;;;;;;;32.77;22.43;;;;;;;7.04;100.00;96915.34;6302060;28;20214;-48
2024/03/01 06:19:42;;;;;;;36.40;26.07;;;;;;;6.92;100.00;96882.84;6315576;28;20188;-49
2024/03/01 06:22:45;;;;;;;33.83;23.73;;;;;;;7.27;100.00;96914.44;6314595;28;20194;-52
2024/03/01 06:25:47;;;;;;;38.97;24.93;;;;;;;7.28;100.00;96912.59;6298848;28;20282;-49
2024/03/01 06:28:49;;;;;;;31.43;21.80;;;;;;;7.32;100.00;96914.53;6303070;28;20204;-49
2024/03/01 06:31:51;;;;;;;38.07;25.40;;;;;;;7.43;100.00;96907.53;6306413;28;20300;-49
2024/03/01 06:34:53;;;;;;;29.77;22.33;;;;;;;7.52;100.00;96906.09;6303065;28;20656;-51
2024/03/01 06:37:56;;;;;;;27.73;21.03;;;;;;;7.54;100.00;96904.03;6306889;28;20259;-46
2024/03/01 06:41:02;;;;;;;33.63;23.30;;;;;;;7.54;100.00;96904.03;6299820;28;20235;-52
2024/03/01 06:44:04;;;;;;;35.87;26.73;;;;;;;7.71;100.00;96901.34;6308077;28;20275;-50
2024/03/01 06:47:06;;;;;;;34.40;24.63;;;;;;;7.87;100.00;96889.91;6313869;28;20189;-51
2024/03/01 06:50:17;;;;;;;36.43;26.33;;;;;;;8.00;100.00;96904.69;6314491;28;20205;-46
2024/03/01 06:53:19;;;;;;;38.50;26.30;;;;;;;8.04;100.00;96895.22;6306793;28;20200;-48
2024/03/01 06:56:23;;;;;;;36.30;26.03;;;;;;;8.08;100.00;96911.41;6303811;28;20213;-51
2024/03/01 06:59:25;;;;;;;36.50;25.73;;;;;;;8.21;100.00;96913.72;6304460;28;20192;-50
2024/03/01 07:02:27;;;;;;;37.53;24.93;;;;;;;8.17;100.00;96917.91;6304803;28;20301;-52
2024/03/01 07:05:30;;;;;;;35.57;25.83;;;;;;;8.27;100.00;96910.91;6305964;28;20197;-50
2024/03/01 07:08:32;;;;;;;36.30;25.97;;;;;;;8.13;100.00;96922.94;6308725;28;20227;-48
2024/03/01 07:11:35;;;;;;;34.20;25.17;;;;;;;8.09;100.00;96926.31;6294685;28;20197;-51
2024/03/01 07:14:37;;;;;;;34.20;24.47;;;;;;;8.18;100.00;96923.00;6299970;28;20210;-52
2024/03/01 07:17:40;;;;;;;36.20;25.03;;;;;;;8.31;100.00;96924.47;6293990;28;20221;-49
2024/03/01 07:20:42;;;;;;;36.80;26.07;;;;;;;8.23;100.00;96916.97;6313364;28;20198;-50
2024/03/01 07:23:49;;;;;;;35.20;25.47;;;;;;;8.23;100.00;96911.66;6306720;28;20275;-46
2024/03/01 07:26:51;;;;;;;34.33;24.00;;;;;;;8.09;100.00;96913.03;6309527;28;20670;-52
2024/03/01 07:29:53;;;;;;;37.70;25.17;;;;;;;8.12;100.00;96904.59;6301778;28;20639;-51
2024/03/01 07:32:55;;;;;;;32.40;24.33;;;;;;;8.09;100.00;96919.16;6304122;28;20202;-51
2024/03/01 07:35:57;;;;;;;34.57;25.90;;;;;;;8.07;100.00;96910.63;6304176;28;20242;-50
2024/03/01 07:38:59;;;;;;;37.43;23.43;;;;;;;8.12;100.00;96916.00;6300287;28;20190;-48
2024/03/01 07:42:01;;;;;;;31.47;23.27;;;;;;;8.10;100.00;96920.75;6305939;28;20230;-49
2024/03/01 07:45:05;;;;;;;35.37;24.00;;;;;;;8.16;100.00;96933.03;6304608;28;20198;-50
2024/03/01 07:48:07;;;;;;;35.50;23.77;;;;;;;8.21;100.00;96921.69;6305492;28;20726;-50
2024/03/01 07:51:10;;;;;;;34.63;23.80;;;;;;;8.18;100.00;96924.84;6308744;28;20195;-50
2024/03/01 07:54:12;;;;;;;31.03;22.20;;;;;;;8.17;100.00;96920.56;6309058;28;20197;-49
2024/03/01 07:57:14;;;;;;;33.07;22.77;;;;;;;8.26;100.00;96908.47;6301340;28;20205;-49
2024/03/01 08:00:17;;;;;;;29.10;23.00;;;;;;;8.28;100.00;96899.25;6279104;28;20202;-50
2024/03/01 08:03:19;;;;;;;31.80;23.53;;;;;;;8.52;100.00;96899.00;6304236;28;20539;-51
2024/03/01 08:06:22;;;;;;;31.00;22.53;;;;;;;8.60;100.00;96901.25;6309341;28;20186;-50
2024/03/01 08:09:32;;;;;;;34.17;21.67;;;;;;;8.53;100.00;96890.81;6295739;28;20202;-52
2024/03/01 08:12:34;;;;;;;27.60;20.20;;;;;;;8.83;100.00;96907.34;6313633;28;20186;-47
2024/03/01 08:15:36;;;;;;;31.73;22.30;;;;;;;8.94;100.00;96909.84;6301064;28;20211;-50
2024/03/01 08:18:42;;;;;;;30.20;20.67;;;;;;;8.87;100.00;96900.50;6312542;28;20762;-48
2024/03/01 08:21:45;;;;;;;31.07;20.90;;;;;;;8.95;99.78;96911.44;6308914;28;20211;-53
2024/03/01 08:24:49;;;;;;;30.43;20.67;;;;;;;9.02;99.56;96906.75;6306630;28;20224;-50
2024/03/01 08:27:56;;;;;;;29.47;21.77;;;;;;;9.10;98.52;96883.44;6303105;28;20712;-50
2024/03/01 08:31:04;;;;;;;34.13;21.90;;;;;;;9.13;99.40;96883.75;6306147;28;20272;-51
2024/03/01 08:34:10;;;;;;;27.43;20.77;;;;;;;9.27;96.36;96884.94;6305225;28;20669;-48
2024/03/01 08:37:22;;;;;;;32.57;21.20;;;;;;;9.35;95.45;96883.66;6307183;28;20717;-50
2024/03/01 08:40:44;;;;;;;27.80;20.53;;;;;;;9.21;97.06;96901.91;6315119;28;20197;-51
2024/03/01 08:43:47;;;;;;;32.00;21.20;;;;;;;9.35;95.57;96891.63;6300504;28;20194;-49
2024/03/01 08:46:49;;;;;;;31.37;21.73;;;;;;;9.33;97.97;96896.41;6310328;28;20202;-51
2024/03/01 08:49:51;;;;;;;28.93;20.80;;;;;;;9.37;97.92;96899.38;6312057;28;20194;-49
2024/03/01 08:52:59;;;;;;;32.03;22.87;;;;;;;9.45;95.81;96896.22;6311595;28;20685;-48
2024/03/01 08:56:01;;;;;;;31.77;21.70;;;;;;;9.30;96.86;96896.91;6297076;28;20215;-47
2024/03/01 08:59:38;;;;;;;30.57;21.37;;;;;;;9.26;98.55;96909.91;6305061;28;20192;-49
2024/03/01 09:02:45;;;;;;;31.90;22.93;;;;;;;9.33;96.26;96900.91;6303333;28;20198;-52
2024/03/01 09:05:48;;;;;;;32.00;23.47;;;;;;;9.25;98.17;96891.53;6307817;28;20198;-51
2024/03/01 09:08:54;;;;;;;30.13;23.67;;;;;;;9.26;97.09;96885.16;6314283;28;20254;-52
2024/03/01 09:11:56;;;;;;;31.40;24.10;;;;;;;9.27;97.88;96898.22;6282520;28;20195;-49
2024/03/01 09:15:02;;;;;;;31.63;24.23;;;;;;;9.24;97.85;96897.91;6304552;28;20201;-50
2024/03/01 09:18:17;;;;;;;31.57;23.27;;;;;;;9.31;97.13;96887.91;6312598;28;20753;-51
2024/03/01 09:21:31;;;;;;;27.90;21.30;;;;;;;9.46;95.73;96874.72;6304545;28;20271;-50
2024/03/01 09:24:37;;;;;;;28.20;21.03;;;;;;;9.51;97.27;96888.06;6301684;28;20178;-49
2024/03/01 09:27:39;;;;;;;29.17;21.53;;;;;;;9.61;94.23;96884.69;6305017;28;20193;-50
2024/03/01 09:30:53;;;;;;;28.40;21.77;;;;;;;9.71;93.62;96879.44;6314237;28;20194;-48
2024/03/01 09:33:56;;;;;;;31.77;21.93;;;;;;;9.62;95.63;96875.63;6314461;28;20208;-51
2024/03/01 09:36:58;;;;;;;30.83;20.87;;;;;;;9.76;93.79;96886.66;6292204;28;20267;-50
2024/03/01 09:40:01;;;;;;;31.60;21.53;;;;;;;9.86;93.47;96873.41;6308777;28;20197;-51
2024/03/01 09:43:21;;;;;;;28.70;20.47;;;;;;;9.87;92.64;96875.00;6311727;28;20310;-49
2024/03/01 09:46:52;;;;;;;28.40;20.07;;;;;;;9.98;91.31;96883.84;6309482;28;20646;-50
2024/03/01 09:50:00;;;;;;;26.53;20.63;;;;;;;10.00;89.91;96881.72;6283692;28;20320;-50
2024/03/01 09:53:32;;;;;;;28.10;19.97;;;;;;;10.02;91.02;96871.63;6310703;28;20192;-50
2024/03/01 09:56:45;;;;;;;28.23;19.87;;;;;;;10.05;91.04;96869.25;6310770;28;20217;-51
2024/03/01 10:00:05;;;;;;;25.63;20.30;;;;;;;10.11;90.82;96886.06;6309773;28;20201;-49
2024/03/01 10:03:25;;;;;;;29.33;20.77;;;;;;;10.21;90.15;96886.09;6307309;28;20212;-49
2024/03/01 10:06:59;;;;;;;26.83;20.50;;;;;;;10.28;89.19;96878.69;6307730;28;20563;-52
2024/03/01 10:10:19;;;;;;;31.83;20.47;;;;;;;10.40;87.30;96875.03;6291375;28;20214;-49
2024/03/01 10:14:00;;;;;;;27.70;20.47;;;;;;;10.37;88.75;96880.88;6304632;28;20203;-51
2024/03/01 10:17:20;;;;;;;26.67;19.90;;;;;;;10.42;89.22;96876.38;6234301;28;20230;-49
2024/03/01 10:20:51;;;;;;;28.83;21.07;;;;;;;10.53;86.45;96885.19;6307166;28;20197;-49
2024/03/01 10:24:20;;;;;;;28.40;19.77;;;;;;;10.59;84.36;96873.53;6299607;28;20196;-51
2024/03/01 10:27:44;;;;;;;28.00;20.20;;;;;;;10.39;85.96;96876.88;6264243;28;20287;-49
2024/03/01 10:31:05;;;;;;;28.40;19.47;;;;;;;10.27;86.69;96863.81;6311870;28;20653;-52
2024/03/01 10:34:24;;;;;;;30.03;22.33;;;;;;;10.20;85.14;96875.72;6298883;28;20578;-52
2024/03/01 10:37:46;;;;;;;31.67;23.67;;;;;;;10.05;86.49;96890.56;6296012;28;20214;-50
2024/03/01 10:41:14;;;;;;;31.50;21.87;;;;;;;9.97;86.62;96879.59;6303531;28;20200;-47
2024/03/01 10:44:46;;;;;;;27.47;19.83;;;;;;;9.86;87.29;96883.25;6306645;28;20231;-49
2024/03/01 10:47:50;;;;;;;28.67;20.80;;;;;;;9.78;87.41;96876.53;6305120;28;20206;-50
2024/03/01 10:51:01;;;;;;;27.13;20.23;;;;;;;9.71;88.96;96878.63;6303281;28;20226;-49
2024/03/01 10:54:07;;;;;;;25.43;18.37;;;;;;;9.69;90.41;96883.38;6302687;28;20579;-49
2024/03/01 10:57:16;;;;;;;25.10;19.17;;;;;;;9.74;90.03;96886.06;6277595;28;20624;-49
2024/03/01 11:00:21;;;;;;;27.03;19.23;;;;;;;9.77;90.59;96883.72;6296204;28;20207;-51
2024/03/01 11:03:40;;;;;;;30.07;22.50;;;;;;;9.71;89.50;96876.75;6314775;28;20564;-49
2024/03/01 11:07:13;;;;;;;29.30;21.13;;;;;;;9.64;90.10;96886.81;6309988;28;20246;-50
2024/03/01 11:10:28;;;;;;;29.53;21.40;;;;;;;9.78;88.90;96880.00;6302544;28;20621;-51
2024/03/01 11:13:33;;;;;;;27.70;20.63;;;;;;;9.59;89.59;96880.66;6307453;28;20582;-52
2024/03/01 11:16:40;;;;;;;30.57;21.83;;;;;;;9.38;91.40;96875.19;6305063;28;20212;-50
2024/03/01 11:19:48;;;;;;;30.53;21.47;;;;;;;9.10;91.47;96846.22;6306573;28;20806;-49
2024/03/01 11:23:04;;;;;;;29.67;22.53;;;;;;;9.37;92.17;96867.47;6303219;28;20610;-49
2024/03/01 11:26:44;;;;;;;30.63;21.50;;;;;;;9.39;91.45;96868.81;6307043;28;20188;-50
2024/03/01 11:29:53;;;;;;;28.83;20.13;;;;;;;9.41;91.90;96868.53;6308132;28;20220;-49
2024/03/01 11:33:03;;;;;;;27.87;20.73;;;;;;;9.47;92.22;96871.00;6309994;28;20200;-48
2024/03/01 11:36:28;;;;;;;27.63;19.67;;;;;;;9.54;92.19;96865.47;6301916;28;20198;-48
2024/03/01 11:39:30;;;;;;;32.03;21.23;;;;;;;9.67;90.40;96864.22;6304780;28;20197;-51
2024/03/01 11:42:45;;;;;;;28.20;21.23;;;;;;;9.52;90.97;96862.25;6304639;28;20231;-52
2024/03/01 11:46:25;;;;;;;26.33;21.50;;;;;;;9.55;90.86;96861.75;6307196;28;20680;-46
2024/03/01 11:50:04;;;;;;;30.57;20.97;;;;;;;9.73;89.26;96849.91;6310485;28;20544;-48
2024/03/01 11:53:24;;;;;;;30.30;21.13;;;;;;;9.63;90.64;96852.50;6304718;28;20224;-50
2024/03/01 11:57:13;;;;;;;27.80;20.07;;;;;;;9.73;89.53;96845.38;6297772;28;20220;-52
2024/03/01 12:01:06;;;;;;;28.17;20.30;;;;;;;9.58;90.03;96845.28;6294718;28;20213;-49
2024/03/01 12:04:08;;;;;;;30.43;21.10;;;;;;;9.59;90.58;96843.44;6223562;28;20649;-47
2024/03/01 12:07:35;;;;;;;27.27;21.40;;;;;;;9.56;91.38;96834.13;6319829;28;20208;-51
2024/03/01 12:10:58;;;;;;;27.53;21.70;;;;;;;9.38;93.21;96840.63;6304188;28;20677;-51
2024/03/01 12:14:04;;;;;;;29.07;22.10;;;;;;;9.43;94.88;96832.69;6305229;28;20193;-53
2024/03/01 12:17:16;;;;;;;34.80;22.90;;;;;;;9.46;95.16;96834.84;6288868;28;20212;-50
2024/03/01 12:20:20;;;;;;;31.97;21.63;;;;;;;9.39;96.10;96830.78;6294261;28;20227;-46
2024/03/01 12:23:44;;;;;;;33.57;22.70;;;;;;;9.37;96.19;96833.72;6299677;28;20187;-51
2024/03/01 12:27:18;;;;;;;30.77;22.87;;;;;;;9.39;97.32;96831.59;6298478;28;20183;-50
2024/03/01 12:30:31;;;;;;;27.03;21.23;;;;;;;9.40;97.97;96833.19;6299422;28;20556;-48
2024/03/01 12:33:59;;;;;;;32.83;24.67;;;;;;;9.25;99.33;96833.88;6302102;28;20561;-51
2024/03/01 12:38:04;;;;;;;30.30;23.90;;;;;;;9.14;100.00;96826.09;6319227;28;20240;-50
2024/03/01 12:41:07;;;;;;;32.20;23.13;;;;;;;9.19;100.00;96826.91;6227852;28;20249;-49
2024/03/01 12:44:18;;;;;;;32.37;23.23;;;;;;;9.19;100.00;96829.56;6265929;28;20226;-52
2024/03/01 12:47:49;;;;;;;35.23;24.67;;;;;;;9.26;100.00;96829.34;6321397;28;20225;-51
2024/03/01 12:50:51;;;;;;;33.00;25.07;;;;;;;9.23;99.52;96829.88;6297478;28;20287;-51
2024/03/01 12:54:02;;;;;;;36.47;26.23;;;;;;;9.13;100.00;96821.81;6334948;28;20284;-48
2024/03/01 12:57:36;;;;;;;34.73;27.10;;;;;;;9.08;100.00;96819.94;6331256;28;20230;-50
2024/03/01 13:01:13;;;;;;;32.57;24.80;;;;;;;9.05;100.00;96825.75;6325742;28;20675;-52
2024/03/01 13:04:28;;;;;;;37.63;27.03;;;;;;;8.99;100.00;96808.97;6328263;28;20193;-47
2024/03/01 13:07:34;;;;;;;34.73;25.20;;;;;;;9.18;100.00;96813.91;6331534;28;20197;-51
2024/03/01 13:10:43;;;;;;;31.87;24.40;;;;;;;9.13;100.00;96822.63;6322666;28;20643;-51
2024/03/01 13:14:01;;;;;;;32.90;25.87;;;;;;;9.17;100.00;96829.03;6337044;28;20196;-49
2024/03/01 13:17:32;;;;;;;36.17;26.47;;;;;;;9.12;100.00;96820.22;6332769;28;20207;-47
2024/03/01 13:20:47;;;;;;;36.97;27.10;;;;;;;9.23;100.00;96816.59;6339664;28;20193;-50
2024/03/01 13:23:54;;;;;;;33.17;26.63;;;;;;;9.22;100.00;96813.13;6327092;28;20294;-47
2024/03/01 13:27:15;;;;;;;33.50;27.20;;;;;;;9.36;100.00;96810.03;6335127;28;20724;-52
2024/03/01 13:30:24;;;;;;;38.70;28.10;;;;;;;9.25;100.00;96817.13;6335132;28;20580;-49
2024/03/01 13:33:59;;;;;;;35.50;27.97;;;;;;;9.15;100.00;96820.50;6333099;28;20281;-49
2024/03/01 13:37:32;;;;;;;35.47;25.80;;;;;;;9.23;100.00;96820.03;6216250;28;20227;-49
2024/03/01 13:40:42;;;;;;;38.03;26.43;;;;;;;9.06;100.00;96816.72;6215561;28;20209;-50
2024/03/01 13:43:59;;;;;;;37.20;25.53;;;;;;;9.05;100.00;96821.22;6218074;28;20845;-52
2024/03/01 13:47:21;;;;;;;31.80;24.83;;;;;;;9.10;100.00;96823.13;6217928;28;20213;-49
2024/03/01 13:50:33;;;;;;;39.17;27.03;;;;;;;9.11;100.00;96819.41;6217836;28;20939;-47
2024/03/01 13:53:35;;;;;;;35.23;26.97;;;;;;;9.15;100.00;96817.03;6219321;28;20223;-47
2024/03/01 13:56:40;;;;;;;36.27;28.00;;;;;;;9.02;100.00;96821.75;6217130;28;20282;-47
2024/03/01 13:59:43;;;;;;;37.23;28.53;;;;;;;9.02;100.00;96815.63;6217446;28;20212;-46
2024/03/01 14:02:48;;;;;;;37.40;26.70;;;;;;;9.00;100.00;96817.72;6217978;28;20201;-49
2024/03/01 14:05:50;;;;;;;37.40;28.30;;;;;;;9.12;100.00;96829.00;6217200;28;20304;-50
2024/03/01 14:08:52;;;;;;;39.00;29.87;;;;;;;8.92;100.00;96805.72;6216898;28;20324;-49
2024/03/01 14:11:55;;;;;;;38.43;29.30;;;;;;;8.84;100.00;96814.13;6254464;27;20202;-49
2024/03/01 14:14:57;;;;;;;44.47;33.40;;;;;;;9.03;100.00;96836.63;6333224;27;20268;-50
2024/03/01 14:18:00;;;;;;;41.10;32.27;;;;;;;8.95;100.00;96826.44;6333968;28;20209;-47
2024/03/01 14:21:03;;;;;;;43.93;34.77;;;;;;;8.78;100.00;96833.72;6333187;28;20207;-48
2024/03/01 14:24:07;;;;;;;44.83;36.17;;;;;;;8.57;100.00;96824.78;6335435;28;20658;-49
2024/03/01 14:27:09;;;;;;;51.77;40.20;;;;;;;8.61;100.00;96822.41;6331474;28;20194;-50